sensor_id;sensor_type;location;lat;lon;timestamp;pressure;altitude;pressure_sealevel;temperature;humidity
49459;BME280;35354;51.296;16.924;2023-11-21T00:00:16;98780.03;;;9.03;100.00
49459;BME280;35354;51.296;16.924;2023-11-21T00:02:43;98749.94;;;8.83;100.00
49459;BME280;35354;51.296;16.924;2023-11-21T00:05:12;98785.72;;;9.09;100.00
49459;BME280;35354;51.296;16.924;2023-11-21T00:07:41;98775.75;;;9.02;100.00
49459;BME280;35354;51.296;16.924;2023-11-21T00:10:07;98789.34;;;9.07;100.00
49459;BME280;35354;51.296;16.924;2023-11-21T00:12:34;98752.44;;;8.84;100.00
49459;BME280;35354;51.296;16.924;2023-11-21T00:15:00;98739.97;;;8.75;100.00
49459;BME280;35354;51.296;16.924;2023-11-21T00:17:25;98738.97;;;8.78;100.00
49459;BME280;35354;51.296;16.924;2023-11-21T00:19:50;98746.69;;;8.79;100.00
49459;BME280;35354;51.296;16.924;2023-11-21T00:22:18;98738.16;;;8.77;100.00
49459;BME280;35354;51.296;16.924;2023-11-21T00:24:45;98776.88;;;8.97;100.00
49459;BME280;35354;51.296;16.924;2023-11-21T00:27:10;98767.72;;;8.90;100.00
49459;BME280;35354;51.296;16.924;2023-11-21T00:29:35;98779.63;;;8.94;100.00
49459;BME280;35354;51.296;16.924;2023-11-21T00:32:01;98788.50;;;8.90;100.00
49459;BME280;35354;51.296;16.924;2023-11-21T00:34:26;98800.06;;;9.00;100.00
49459;BME280;35354;51.296;16.924;2023-11-21T00:36:52;98772.38;;;8.84;100.00
49459;BME280;35354;51.296;16.924;2023-11-21T00:39:17;98800.06;;;9.00;100.00
49459;BME280;35354;51.296;16.924;2023-11-21T00:41:42;98778.34;;;8.86;100.00
49459;BME280;35354;51.296;16.924;2023-11-21T00:44:09;98784.88;;;8.93;100.00
49459;BME280;35354;51.296;16.924;2023-11-21T00:46:35;98789.16;;;8.94;100.00
49459;BME280;35354;51.296;16.924;2023-11-21T00:49:00;98738.03;;;8.63;100.00
49459;BME280;35354;51.296;16.924;2023-11-21T00:51:26;98791.78;;;8.94;100.00
49459;BME280;35354;51.296;16.924;2023-11-21T00:53:51;98751.44;;;8.71;100.00
49459;BME280;35354;51.296;16.924;2023-11-21T00:56:16;98783.38;;;8.89;100.00
49459;BME280;35354;51.296;16.924;2023-11-21T00:58:42;98762.34;;;8.78;100.00
49459;BME280;35354;51.296;16.924;2023-11-21T01:01:11;98780.94;;;8.86;100.00
49459;BME280;35354;51.296;16.924;2023-11-21T01:03:37;98804.31;;;9.02;100.00
49459;BME280;35354;51.296;16.924;2023-11-21T01:06:02;98761.50;;;8.77;100.00
49459;BME280;35354;51.296;16.924;2023-11-21T01:08:28;98734.59;;;8.62;100.00
49459;BME280;35354;51.296;16.924;2023-11-21T01:10:54;98792.91;;;8.88;100.00
49459;BME280;35354;51.296;16.924;2023-11-21T01:13:20;98796.19;;;8.92;100.00
49459;BME280;35354;51.296;16.924;2023-11-21T01:15:45;98753.97;;;8.72;100.00
49459;BME280;35354;51.296;16.924;2023-11-21T01:18:11;98768.63;;;8.73;100.00
49459;BME280;35354;51.296;16.924;2023-11-21T01:20:36;98761.75;;;8.72;100.00
49459;BME280;35354;51.296;16.924;2023-11-21T01:23:01;98798.94;;;8.89;100.00
49459;BME280;35354;51.296;16.924;2023-11-21T01:25:27;98787.03;;;8.85;100.00
49459;BME280;35354;51.296;16.924;2023-11-21T01:27:52;98795.75;;;8.84;100.00
49459;BME280;35354;51.296;16.924;2023-11-21T01:30:18;98798.94;;;8.89;100.00
49459;BME280;35354;51.296;16.924;2023-11-21T01:32:43;98781.09;;;8.83;100.00
49459;BME280;35354;51.296;16.924;2023-11-21T01:35:09;98801.97;;;8.81;100.00
49459;BME280;35354;51.296;16.924;2023-11-21T01:37:35;98792.00;;;8.73;100.00
49459;BME280;35354;51.296;16.924;2023-11-21T01:40:01;98766.22;;;8.53;100.00
49459;BME280;35354;51.296;16.924;2023-11-21T01:42:27;98808.75;;;8.84;100.00
49459;BME280;35354;51.296;16.924;2023-11-21T01:44:54;98820.50;;;8.91;100.00
49459;BME280;35354;51.296;16.924;2023-11-21T01:47:20;98792.56;;;8.79;100.00
49459;BME280;35354;51.296;16.924;2023-11-21T01:49:46;98801.78;;;8.84;100.00
49459;BME280;35354;51.296;16.924;2023-11-21T01:52:12;98805.91;;;8.88;100.00
49459;BME280;35354;51.296;16.924;2023-11-21T01:54:38;98765.44;;;8.68;100.00
49459;BME280;35354;51.296;16.924;2023-11-21T01:57:04;98803.94;;;8.76;100.00
49459;BME280;35354;51.296;16.924;2023-11-21T01:59:34;98785.78;;;8.76;100.00
49459;BME280;35354;51.296;16.924;2023-11-21T02:02:00;98790.97;;;8.76;100.00
49459;BME280;35354;51.296;16.924;2023-11-21T02:04:25;98751.84;;;8.47;100.00
49459;BME280;35354;51.296;16.924;2023-11-21T02:06:51;98804.81;;;8.77;100.00
49459;BME280;35354;51.296;16.924;2023-11-21T02:09:16;98817.47;;;8.83;100.00
49459;BME280;35354;51.296;16.924;2023-11-21T02:11:43;98815.84;;;8.80;100.00
49459;BME280;35354;51.296;16.924;2023-11-21T02:14:09;98776.47;;;8.56;100.00
49459;BME280;35354;51.296;16.924;2023-11-21T02:16:35;98824.50;;;8.81;100.00
49459;BME280;35354;51.296;16.924;2023-11-21T02:19:02;98817.78;;;8.77;100.00
49459;BME280;35354;51.296;16.924;2023-11-21T02:21:28;98797.81;;;8.61;100.00
49459;BME280;35354;51.296;16.924;2023-11-21T02:23:55;98805.00;;;8.56;100.00
49459;BME280;35354;51.296;16.924;2023-11-21T02:26:21;98792.03;;;8.56;100.00
49459;BME280;35354;51.296;16.924;2023-11-21T02:28:46;98791.19;;;8.56;100.00
49459;BME280;35354;51.296;16.924;2023-11-21T02:31:11;98789.44;;;8.56;100.00
49459;BME280;35354;51.296;16.924;2023-11-21T02:33:37;98821.78;;;8.66;100.00
49459;BME280;35354;51.296;16.924;2023-11-21T02:36:03;98794.69;;;8.55;100.00
49459;BME280;35354;51.296;16.924;2023-11-21T02:38:28;98819.28;;;8.65;100.00
49459;BME280;35354;51.296;16.924;2023-11-21T02:40:54;98837.25;;;8.68;100.00
49459;BME280;35354;51.296;16.924;2023-11-21T02:43:19;98829.41;;;8.69;100.00
49459;BME280;35354;51.296;16.924;2023-11-21T02:45:45;98831.91;;;8.71;100.00
49459;BME280;35354;51.296;16.924;2023-11-21T02:48:10;98835.19;;;8.74;100.00
49459;BME280;35354;51.296;16.924;2023-11-21T02:50:36;98824.47;;;8.65;100.00
49459;BME280;35354;51.296;16.924;2023-11-21T02:53:02;98792.56;;;8.45;100.00
49459;BME280;35354;51.296;16.924;2023-11-21T02:55:28;98843.75;;;8.77;100.00
49459;BME280;35354;51.296;16.924;2023-11-21T02:57:54;98806.78;;;8.56;100.00
49459;BME280;35354;51.296;16.924;2023-11-21T03:00:21;98797.06;;;8.42;100.00
49459;BME280;35354;51.296;16.924;2023-11-21T03:02:49;98802.97;;;8.45;100.00
49459;BME280;35354;51.296;16.924;2023-11-21T03:05:14;98804.56;;;8.48;100.00
49459;BME280;35354;51.296;16.924;2023-11-21T03:07:40;98832.25;;;8.65;100.00
49459;BME280;35354;51.296;16.924;2023-11-21T03:10:07;98792.72;;;8.42;100.00
49459;BME280;35354;51.296;16.924;2023-11-21T03:12:34;98828.03;;;8.62;100.00
49459;BME280;35354;51.296;16.924;2023-11-21T03:14:59;98825.94;;;8.53;100.00
49459;BME280;35354;51.296;16.924;2023-11-21T03:17:25;98834.00;;;8.64;100.00
49459;BME280;35354;51.296;16.924;2023-11-21T03:19:50;98827.22;;;8.62;100.00
49459;BME280;35354;51.296;16.924;2023-11-21T03:22:17;98849.09;;;8.73;100.00
49459;BME280;35354;51.296;16.924;2023-11-21T03:24:42;98835.59;;;8.67;100.00
49459;BME280;35354;51.296;16.924;2023-11-21T03:27:07;98818.88;;;8.55;100.00
49459;BME280;35354;51.296;16.924;2023-11-21T03:29:33;98815.00;;;8.46;100.00
49459;BME280;35354;51.296;16.924;2023-11-21T03:31:58;98807.06;;;8.49;100.00
49459;BME280;35354;51.296;16.924;2023-11-21T03:34:26;98813.69;;;8.55;100.00
49459;BME280;35354;51.296;16.924;2023-11-21T03:36:52;98850.69;;;8.76;100.00
49459;BME280;35354;51.296;16.924;2023-11-21T03:39:19;98855.03;;;8.75;100.00
49459;BME280;35354;51.296;16.924;2023-11-21T03:41:44;98846.66;;;8.70;100.00
49459;BME280;35354;51.296;16.924;2023-11-21T03:44:10;98815.44;;;8.55;100.00
49459;BME280;35354;51.296;16.924;2023-11-21T03:46:35;98835.81;;;8.62;100.00
49459;BME280;35354;51.296;16.924;2023-11-21T03:49:01;98828.53;;;8.53;100.00
49459;BME280;35354;51.296;16.924;2023-11-21T03:51:26;98826.59;;;8.57;100.00
49459;BME280;35354;51.296;16.924;2023-11-21T03:53:51;98839.25;;;8.63;100.00
49459;BME280;35354;51.296;16.924;2023-11-21T03:56:17;98843.38;;;8.67;100.00
49459;BME280;35354;51.296;16.924;2023-11-21T03:58:42;98823.88;;;8.60;100.00
49459;BME280;35354;51.296;16.924;2023-11-21T04:01:08;98846.66;;;8.70;100.00
49459;BME280;35354;51.296;16.924;2023-11-21T04:03:34;98803.28;;;8.39;100.00
49459;BME280;35354;51.296;16.924;2023-11-21T04:05:59;98813.34;;;8.45;100.00
49459;BME280;35354;51.296;16.924;2023-11-21T04:08:26;98831.13;;;8.53;100.00
49459;BME280;35354;51.296;16.924;2023-11-21T04:10:51;98810.06;;;8.42;100.00
49459;BME280;35354;51.296;16.924;2023-11-21T04:13:18;98789.59;;;8.36;100.00
49459;BME280;35354;51.296;16.924;2023-11-21T04:15:44;98842.53;;;8.66;100.00
49459;BME280;35354;51.296;16.924;2023-11-21T04:18:09;98851.94;;;8.69;100.00
49459;BME280;35354;51.296;16.924;2023-11-21T04:20:34;98823.66;;;8.47;100.00
49459;BME280;35354;51.296;16.924;2023-11-21T04:23:00;98833.63;;;8.55;100.00
49459;BME280;35354;51.296;16.924;2023-11-21T04:25:25;98827.97;;;8.46;100.00
49459;BME280;35354;51.296;16.924;2023-11-21T04:27:51;98857.38;;;8.64;100.00
49459;BME280;35354;51.296;16.924;2023-11-21T04:30:16;98851.63;;;8.58;100.00
49459;BME280;35354;51.296;16.924;2023-11-21T04:32:41;98851.50;;;8.61;100.00
49459;BME280;35354;51.296;16.924;2023-11-21T04:35:07;98852.72;;;8.54;100.00
49459;BME280;35354;51.296;16.924;2023-11-21T04:37:33;98846.78;;;8.52;100.00
49459;BME280;35354;51.296;16.924;2023-11-21T04:39:59;98836.63;;;8.47;100.00
49459;BME280;35354;51.296;16.924;2023-11-21T04:42:24;98866.28;;;8.59;100.00
49459;BME280;35354;51.296;16.924;2023-11-21T04:44:49;98856.28;;;8.51;100.00
49459;BME280;35354;51.296;16.924;2023-11-21T04:47:15;98876.44;;;8.63;100.00
49459;BME280;35354;51.296;16.924;2023-11-21T04:49:42;98855.69;;;8.46;100.00
49459;BME280;35354;51.296;16.924;2023-11-21T04:52:07;98848.44;;;8.35;100.00
49459;BME280;35354;51.296;16.924;2023-11-21T04:54:35;98881.25;;;8.54;100.00
49459;BME280;35354;51.296;16.924;2023-11-21T04:57:00;98849.06;;;8.40;100.00
49459;BME280;35354;51.296;16.924;2023-11-21T04:59:26;98865.38;;;8.42;100.00
49459;BME280;35354;51.296;16.924;2023-11-21T05:01:52;98866.44;;;8.38;100.00
49459;BME280;35354;51.296;16.924;2023-11-21T05:04:19;98886.69;;;8.49;100.00
49459;BME280;35354;51.296;16.924;2023-11-21T05:06:44;98844.38;;;8.30;100.00
49459;BME280;35354;51.296;16.924;2023-11-21T05:09:09;98887.28;;;8.54;100.00
49459;BME280;35354;51.296;16.924;2023-11-21T05:11:37;98870.50;;;8.44;100.00
49459;BME280;35354;51.296;16.924;2023-11-21T05:14:03;98847.75;;;8.32;100.00
49459;BME280;35354;51.296;16.924;2023-11-21T05:16:29;98882.09;;;8.54;100.00
49459;BME280;35354;51.296;16.924;2023-11-21T05:18:54;98890.34;;;8.62;100.00
49459;BME280;35354;51.296;16.924;2023-11-21T05:21:25;98897.38;;;8.60;100.00
49459;BME280;35354;51.296;16.924;2023-11-21T05:23:51;98867.91;;;8.44;100.00
49459;BME280;35354;51.296;16.924;2023-11-21T05:26:16;98899.66;;;8.66;100.00
49459;BME280;35354;51.296;16.924;2023-11-21T05:28:41;98899.88;;;8.62;100.00
49459;BME280;35354;51.296;16.924;2023-11-21T05:31:07;98856.28;;;8.34;100.00
49459;BME280;35354;51.296;16.924;2023-11-21T05:33:32;98887.44;;;8.51;100.00
49459;BME280;35354;51.296;16.924;2023-11-21T05:35:58;98906.94;;;8.60;100.00
49459;BME280;35354;51.296;16.924;2023-11-21T05:38:23;98875.63;;;8.45;100.00
49459;BME280;35354;51.296;16.924;2023-11-21T05:40:49;98872.63;;;8.36;100.00
49459;BME280;35354;51.296;16.924;2023-11-21T05:43:15;98894.78;;;8.43;100.00
49459;BME280;35354;51.296;16.924;2023-11-21T05:45:40;98887.22;;;8.38;100.00
49459;BME280;35354;51.296;16.924;2023-11-21T05:48:06;98914.91;;;8.55;100.00
49459;BME280;35354;51.296;16.924;2023-11-21T05:50:31;98922.78;;;8.54;100.00
49459;BME280;35354;51.296;16.924;2023-11-21T05:52:57;98915.00;;;8.54;100.00
49459;BME280;35354;51.296;16.924;2023-11-21T05:55:25;98933.72;;;8.60;100.00
49459;BME280;35354;51.296;16.924;2023-11-21T05:57:51;98933.94;;;8.56;100.00
49459;BME280;35354;51.296;16.924;2023-11-21T06:00:16;98918.81;;;8.46;100.00
49459;BME280;35354;51.296;16.924;2023-11-21T06:02:52;98921.34;;;8.48;100.00
49459;BME280;35354;51.296;16.924;2023-11-21T06:05:24;98910.72;;;8.35;100.00
49459;BME280;35354;51.296;16.924;2023-11-21T06:07:51;98934.09;;;8.53;100.00
49459;BME280;35354;51.296;16.924;2023-11-21T06:10:19;98941.75;;;8.56;100.00
49459;BME280;35354;51.296;16.924;2023-11-21T06:12:44;98951.88;;;8.60;100.00
49459;BME280;35354;51.296;16.924;2023-11-21T06:15:10;98950.41;;;8.55;100.00
49459;BME280;35354;51.296;16.924;2023-11-21T06:17:39;98913.25;;;8.37;100.00
49459;BME280;35354;51.296;16.924;2023-11-21T06:20:06;98951.25;;;8.55;100.00
49459;BME280;35354;51.296;16.924;2023-11-21T06:22:38;98954.03;;;8.52;100.00
49459;BME280;35354;51.296;16.924;2023-11-21T06:25:04;98953.25;;;8.50;100.00
49459;BME280;35354;51.296;16.924;2023-11-21T06:27:34;98953.41;;;8.47;100.00
49459;BME280;35354;51.296;16.924;2023-11-21T06:30:01;98939.88;;;8.40;100.00
49459;BME280;35354;51.296;16.924;2023-11-21T06:32:27;98963.63;;;8.50;100.00
49459;BME280;35354;51.296;16.924;2023-11-21T06:34:57;98967.84;;;8.53;100.00
49459;BME280;35354;51.296;16.924;2023-11-21T06:37:28;98980.50;;;8.59;100.00
49459;BME280;35354;51.296;16.924;2023-11-21T06:39:54;98989.81;;;8.63;100.00
49459;BME280;35354;51.296;16.924;2023-11-21T06:42:20;98957.91;;;8.43;100.00
49459;BME280;35354;51.296;16.924;2023-11-21T06:44:47;98975.00;;;8.47;100.00
49459;BME280;35354;51.296;16.924;2023-11-21T06:47:13;98969.88;;;8.46;100.00
49459;BME280;35354;51.296;16.924;2023-11-21T06:49:38;98949.06;;;8.29;100.00
49459;BME280;35354;51.296;16.924;2023-11-21T06:52:04;98975.38;;;8.40;100.00
49459;BME280;35354;51.296;16.924;2023-11-21T06:54:31;98922.28;;;8.11;100.00
49459;BME280;35354;51.296;16.924;2023-11-21T06:56:56;98946.00;;;8.20;100.00
49459;BME280;35354;51.296;16.924;2023-11-21T06:59:22;98962.75;;;8.32;100.00
49459;BME280;35354;51.296;16.924;2023-11-21T07:01:47;98997.81;;;8.58;100.00
49459;BME280;35354;51.296;16.924;2023-11-21T07:04:13;98991.25;;;8.51;100.00
49459;BME280;35354;51.296;16.924;2023-11-21T07:06:38;98987.16;;;8.47;100.00
49459;BME280;35354;51.296;16.924;2023-11-21T07:09:03;98991.09;;;8.54;100.00
49459;BME280;35354;51.296;16.924;2023-11-21T07:11:29;98948.22;;;8.28;100.00
49459;BME280;35354;51.296;16.924;2023-11-21T07:13:54;99005.38;;;8.63;100.00
49459;BME280;35354;51.296;16.924;2023-11-21T07:16:19;99008.22;;;8.58;100.00
49459;BME280;35354;51.296;16.924;2023-11-21T07:18:45;99007.94;;;8.64;100.00
49459;BME280;35354;51.296;16.924;2023-11-21T07:21:10;98977.75;;;8.44;100.00
49459;BME280;35354;51.296;16.924;2023-11-21T07:23:37;99002.31;;;8.55;100.00
49459;BME280;35354;51.296;16.924;2023-11-21T07:26:03;99005.56;;;8.60;100.00
49459;BME280;35354;51.296;16.924;2023-11-21T07:28:29;99007.84;;;8.66;100.00
49459;BME280;35354;51.296;16.924;2023-11-21T07:30:55;99011.97;;;8.70;100.00
49459;BME280;35354;51.296;16.924;2023-11-21T07:33:20;98995.94;;;8.62;100.00
49459;BME280;35354;51.296;16.924;2023-11-21T07:35:46;98958.88;;;8.41;100.00
49459;BME280;35354;51.296;16.924;2023-11-21T07:38:12;99011.00;;;8.72;100.00
49459;BME280;35354;51.296;16.924;2023-11-21T07:40:38;99011.28;;;8.66;100.00
49459;BME280;35354;51.296;16.924;2023-11-21T07:43:03;98979.75;;;8.57;100.00
49459;BME280;35354;51.296;16.924;2023-11-21T07:45:28;98967.13;;;8.49;100.00
49459;BME280;35354;51.296;16.924;2023-11-21T07:47:54;98962.78;;;8.49;100.00
49459;BME280;35354;51.296;16.924;2023-11-21T07:50:21;99016.78;;;8.78;100.00
49459;BME280;35354;51.296;16.924;2023-11-21T07:52:48;99005.81;;;8.72;100.00
49459;BME280;35354;51.296;16.924;2023-11-21T07:55:15;99024.44;;;8.81;100.00
49459;BME280;35354;51.296;16.924;2023-11-21T07:57:40;99006.91;;;8.67;100.00
49459;BME280;35354;51.296;16.924;2023-11-21T08:00:07;99000.13;;;8.64;100.00
49459;BME280;35354;51.296;16.924;2023-11-21T08:02:37;99015.19;;;8.75;100.00
49459;BME280;35354;51.296;16.924;2023-11-21T08:05:02;99032.66;;;8.89;100.00
49459;BME280;35354;51.296;16.924;2023-11-21T08:07:28;99030.38;;;8.83;100.00
49459;BME280;35354;51.296;16.924;2023-11-21T08:09:53;99008.31;;;8.74;100.00
49459;BME280;35354;51.296;16.924;2023-11-21T08:12:19;99004.09;;;8.71;100.00
49459;BME280;35354;51.296;16.924;2023-11-21T08:14:45;99025.03;;;8.86;100.00
49459;BME280;35354;51.296;16.924;2023-11-21T08:17:10;99032.47;;;8.93;100.00
49459;BME280;35354;51.296;16.924;2023-11-21T08:19:36;99037.44;;;8.98;100.00
49459;BME280;35354;51.296;16.924;2023-11-21T08:22:03;99010.59;;;8.80;100.00
49459;BME280;35354;51.296;16.924;2023-11-21T08:24:28;98990.97;;;8.74;100.00
49459;BME280;35354;51.296;16.924;2023-11-21T08:26:54;99003.03;;;8.75;100.00
49459;BME280;35354;51.296;16.924;2023-11-21T08:29:19;99011.47;;;8.81;100.00
49459;BME280;35354;51.296;16.924;2023-11-21T08:31:45;99049.41;;;9.00;100.00
49459;BME280;35354;51.296;16.924;2023-11-21T08:34:12;99050.19;;;9.03;100.00
49459;BME280;35354;51.296;16.924;2023-11-21T08:36:42;99058.03;;;9.01;100.00
49459;BME280;35354;51.296;16.924;2023-11-21T08:39:07;99036.66;;;8.96;100.00
49459;BME280;35354;51.296;16.924;2023-11-21T08:41:33;99045.22;;;8.98;100.00
49459;BME280;35354;51.296;16.924;2023-11-21T08:43:58;99037.66;;;8.93;100.00
49459;BME280;35354;51.296;16.924;2023-11-21T08:46:24;99030.06;;;8.89;100.00
49459;BME280;35354;51.296;16.924;2023-11-21T08:48:50;99049.50;;;8.99;100.00
49459;BME280;35354;51.296;16.924;2023-11-21T08:51:17;99033.53;;;8.89;100.00
49459;BME280;35354;51.296;16.924;2023-11-21T08:53:43;99017.47;;;8.81;100.00
49459;BME280;35354;51.296;16.924;2023-11-21T08:56:15;99047.94;;;8.78;100.00
49459;BME280;35354;51.296;16.924;2023-11-21T08:58:40;99008.88;;;8.25;100.00
49459;BME280;35354;51.296;16.924;2023-11-21T09:01:06;99032.88;;;8.12;100.00
49459;BME280;35354;51.296;16.924;2023-11-21T09:03:32;99054.41;;;7.95;100.00
49459;BME280;35354;51.296;16.924;2023-11-21T09:05:59;99058.31;;;7.85;100.00
49459;BME280;35354;51.296;16.924;2023-11-21T09:08:25;99068.19;;;7.77;100.00
49459;BME280;35354;51.296;16.924;2023-11-21T09:10:50;99071.41;;;7.63;100.00
49459;BME280;35354;51.296;16.924;2023-11-21T09:13:17;99068.84;;;7.61;100.00
49459;BME280;35354;51.296;16.924;2023-11-21T09:15:43;99057.63;;;7.42;100.00
49459;BME280;35354;51.296;16.924;2023-11-21T09:18:13;99004.81;;;7.05;100.00
49459;BME280;35354;51.296;16.924;2023-11-21T09:20:38;99055.94;;;7.20;100.00
49459;BME280;35354;51.296;16.924;2023-11-21T09:23:03;99035.91;;;7.04;100.00
49459;BME280;35354;51.296;16.924;2023-11-21T09:25:28;99059.63;;;7.15;100.00
49459;BME280;35354;51.296;16.924;2023-11-21T09:27:54;99060.28;;;7.20;100.00
49459;BME280;35354;51.296;16.924;2023-11-21T09:30:19;99069.16;;;7.14;100.00
49459;BME280;35354;51.296;16.924;2023-11-21T09:32:45;99089.34;;;7.27;100.00
49459;BME280;35354;51.296;16.924;2023-11-21T09:35:10;99055.09;;;6.99;100.00
49459;BME280;35354;51.296;16.924;2023-11-21T09:37:36;99057.88;;;6.95;100.00
49459;BME280;35354;51.296;16.924;2023-11-21T09:40:04;99057.03;;;6.94;100.00
49459;BME280;35354;51.296;16.924;2023-11-21T09:42:34;99090.91;;;7.10;100.00
49459;BME280;35354;51.296;16.924;2023-11-21T09:45:05;99095.47;;;7.04;100.00
49459;BME280;35354;51.296;16.924;2023-11-21T09:47:34;99078.19;;;6.84;100.00
49459;BME280;35354;51.296;16.924;2023-11-21T09:50:01;99045.41;;;6.62;100.00
49459;BME280;35354;51.296;16.924;2023-11-21T09:52:28;99106.59;;;6.85;100.00
49459;BME280;35354;51.296;16.924;2023-11-21T09:54:55;99009.25;;;6.17;100.00
49459;BME280;35354;51.296;16.924;2023-11-21T09:57:23;99111.53;;;6.69;100.00
49459;BME280;35354;51.296;16.924;2023-11-21T09:59:53;99110.75;;;6.67;100.00
49459;BME280;35354;51.296;16.924;2023-11-21T10:02:28;99089.31;;;6.42;100.00
49459;BME280;35354;51.296;16.924;2023-11-21T10:04:56;99112.50;;;6.45;100.00
49459;BME280;35354;51.296;16.924;2023-11-21T10:07:22;99098.28;;;6.33;100.00
49459;BME280;35354;51.296;16.924;2023-11-21T10:09:47;99102.47;;;6.36;100.00
49459;BME280;35354;51.296;16.924;2023-11-21T10:12:15;99040.19;;;5.96;100.00
49459;BME280;35354;51.296;16.924;2023-11-21T10:14:41;99111.53;;;6.47;100.00
49459;BME280;35354;51.296;16.924;2023-11-21T10:17:10;99118.56;;;6.44;100.00
49459;BME280;35354;51.296;16.924;2023-11-21T10:19:38;99092.72;;;6.20;100.00
49459;BME280;35354;51.296;16.924;2023-11-21T10:22:05;99091.34;;;6.12;100.00
49459;BME280;35354;51.296;16.924;2023-11-21T10:24:32;99136.53;;;6.25;100.00
49459;BME280;35354;51.296;16.924;2023-11-21T10:26:57;99109.66;;;6.06;100.00
49459;BME280;35354;51.296;16.924;2023-11-21T10:29:23;99142.03;;;6.16;100.00
49459;BME280;35354;51.296;16.924;2023-11-21T10:31:51;99097.13;;;5.95;100.00
49459;BME280;35354;51.296;16.924;2023-11-21T10:34:20;99124.25;;;6.07;100.00
49459;BME280;35354;51.296;16.924;2023-11-21T10:36:47;99134.22;;;6.17;100.00
49459;BME280;35354;51.296;16.924;2023-11-21T10:39:19;99134.03;;;6.22;100.00
49459;BME280;35354;51.296;16.924;2023-11-21T10:41:48;99109.53;;;6.09;100.00
49459;BME280;35354;51.296;16.924;2023-11-21T10:44:15;99122.47;;;6.09;100.00
49459;BME280;35354;51.296;16.924;2023-11-21T10:46:47;99096.16;;;5.97;100.00
49459;BME280;35354;51.296;16.924;2023-11-21T10:49:19;99129.84;;;6.19;100.00
49459;BME280;35354;51.296;16.924;2023-11-21T10:51:45;99126.81;;;6.08;100.00
49459;BME280;35354;51.296;16.924;2023-11-21T10:54:10;99119.59;;;5.93;100.00
49459;BME280;35354;51.296;16.924;2023-11-21T10:56:38;99150.00;;;6.10;100.00
49459;BME280;35354;51.296;16.924;2023-11-21T10:59:08;99086.06;;;5.66;100.00
49459;BME280;35354;51.296;16.924;2023-11-21T11:01:36;99146.47;;;5.87;100.00
49459;BME280;35354;51.296;16.924;2023-11-21T11:04:05;99139.16;;;5.75;100.00
49459;BME280;35354;51.296;16.924;2023-11-21T11:06:32;99142.81;;;5.69;100.00
49459;BME280;35354;51.296;16.924;2023-11-21T11:08:59;99153.84;;;5.73;100.00
49459;BME280;35354;51.296;16.924;2023-11-21T11:11:28;99159.19;;;5.68;100.00
49459;BME280;35354;51.296;16.924;2023-11-21T11:13:53;99106.38;;;5.52;100.00
49459;BME280;35354;51.296;16.924;2023-11-21T11:16:19;99143.66;;;5.70;100.00
49459;BME280;35354;51.296;16.924;2023-11-21T11:18:45;99126.19;;;5.51;100.00
49459;BME280;35354;51.296;16.924;2023-11-21T11:21:31;99166.69;;;5.76;100.00
49459;BME280;35354;51.296;16.924;2023-11-21T11:24:27;99170.16;;;5.75;100.00
49459;BME280;35354;51.296;16.924;2023-11-21T11:35:48;99149.50;;;5.50;100.00
49459;BME280;35354;51.296;16.924;2023-11-21T11:38:21;99134.22;;;5.44;100.00
49459;BME280;35354;51.296;16.924;2023-11-21T11:40:46;99162.00;;;5.62;100.00
49459;BME280;35354;51.296;16.924;2023-11-21T11:43:12;99147.00;;;5.47;100.00
49459;BME280;35354;51.296;16.924;2023-11-21T11:45:38;99159.97;;;5.45;100.00
49459;BME280;35354;51.296;16.924;2023-11-21T11:48:07;99175.09;;;5.31;100.00
49459;BME280;35354;51.296;16.924;2023-11-21T11:50:33;99172.69;;;5.25;100.00
49459;BME280;35354;51.296;16.924;2023-11-21T11:53:25;99195.31;;;5.18;100.00
49459;BME280;35354;51.296;16.924;2023-11-21T11:56:14;99152.81;;;5.02;100.00
49459;BME280;35354;51.296;16.924;2023-11-21T11:58:43;99162.28;;;5.02;100.00
49459;BME280;35354;51.296;16.924;2023-11-21T12:01:08;99159.78;;;4.98;100.00
49459;BME280;35354;51.296;16.924;2023-11-21T12:03:37;99197.16;;;5.13;100.00
49459;BME280;35354;51.296;16.924;2023-11-21T12:06:02;99156.06;;;4.81;100.00
49459;BME280;35354;51.296;16.924;2023-11-21T12:08:28;99196.41;;;5.10;100.00
49459;BME280;35354;51.296;16.924;2023-11-21T12:10:56;99188.19;;;4.98;100.00
49459;BME280;35354;51.296;16.924;2023-11-21T12:13:22;99191.97;;;4.87;100.00
49459;BME280;35354;51.296;16.924;2023-11-21T12:15:48;99211.50;;;4.95;100.00
49459;BME280;35354;51.296;16.924;2023-11-21T12:18:14;99200.63;;;4.86;100.00
49459;BME280;35354;51.296;16.924;2023-11-21T12:20:39;99208.38;;;4.86;100.00
49459;BME280;35354;51.296;16.924;2023-11-21T12:23:06;99175.97;;;4.75;100.00
49459;BME280;35354;51.296;16.924;2023-11-21T12:25:34;99214.84;;;4.99;100.00
49459;BME280;35354;51.296;16.924;2023-11-21T12:28:02;99174.28;;;4.74;100.00
49459;BME280;35354;51.296;16.924;2023-11-21T12:30:32;99209.25;;;4.85;100.00
49459;BME280;35354;51.296;16.924;2023-11-21T12:33:01;99186.94;;;4.54;100.00
49459;BME280;35354;51.296;16.924;2023-11-21T12:35:31;99195.50;;;4.56;100.00
49459;BME280;35354;51.296;16.924;2023-11-21T12:37:59;99231.09;;;4.73;100.00
49459;BME280;35354;51.296;16.924;2023-11-21T12:40:25;99202.28;;;4.59;100.00
49459;BME280;35354;51.296;16.924;2023-11-21T12:42:56;99238.56;;;4.82;100.00
49459;BME280;35354;51.296;16.924;2023-11-21T12:45:26;99249.16;;;5.01;100.00
49459;BME280;35354;51.296;16.924;2023-11-21T12:48:05;99230.63;;;4.88;100.00
49459;BME280;35354;51.296;16.924;2023-11-21T12:50:37;99248.81;;;4.85;100.00
49459;BME280;35354;51.296;16.924;2023-11-21T12:53:05;99257.75;;;4.73;100.00
49459;BME280;35354;51.296;16.924;2023-11-21T12:55:34;99206.31;;;4.38;100.00